Time;durP1;ratioP1;P1;durP2;ratioP2;P2;SDS_P1;SDS_P2;PMS_P1;PMS_P2;Temp;Humidity;BMP_temperature;BMP_pressure;BME280_temperature;BME280_humidity;BME280_pressure;Samples;Min_cycle;Max_cycle;Signal;HPM_P1;HPM_P2
2023/04/17 00:01:22;;;;;;;14.13;9.73;;;;;;;5.91;100.00;101596.72;4992558;28;20153;-80
2023/04/17 00:03:51;;;;;;;13.67;8.60;;;;;;;6.03;100.00;101596.84;4995321;28;20092;-79
2023/04/17 00:06:18;;;;;;;13.70;8.97;;;;;;;5.98;100.00;101593.31;4976594;28;20062;-80
2023/04/17 00:08:45;;;;;;;15.47;8.90;;;;;;;5.99;100.00;101594.19;4991701;28;20324;-80
2023/04/17 00:11:11;;;;;;;16.43;10.37;;;;;;;6.06;100.00;101593.41;4976535;28;20077;-79
2023/04/17 00:13:38;;;;;;;13.40;8.73;;;;;;;5.96;100.00;101596.75;5009222;28;20114;-79
2023/04/17 00:16:05;;;;;;;14.50;8.87;;;;;;;5.89;100.00;101596.66;4986950;28;20077;-79
2023/04/17 00:18:32;;;;;;;16.47;9.53;;;;;;;5.93;100.00;101595.88;4992890;28;20061;-80
2023/04/17 00:20:59;;;;;;;16.43;10.70;;;;;;;5.88;100.00;101596.63;4979136;28;20054;-79
2023/04/17 00:23:25;;;;;;;12.40;8.67;;;;;;;5.83;100.00;101591.31;4994908;28;20042;-79
2023/04/17 00:25:52;;;;;;;14.60;9.93;;;;;;;5.83;100.00;101588.69;4996072;28;20038;-80
2023/04/17 00:28:19;;;;;;;14.13;9.10;;;;;;;5.87;100.00;101600.97;4994700;28;20053;-79
2023/04/17 00:30:46;;;;;;;15.73;9.97;;;;;;;5.89;100.00;101594.03;4992296;28;20050;-80
2023/04/17 00:33:12;;;;;;;12.90;9.00;;;;;;;5.89;100.00;101595.78;5000489;28;20049;-79
2023/04/17 00:35:39;;;;;;;13.57;9.17;;;;;;;5.87;100.00;101602.72;4995157;28;20173;-79
2023/04/17 00:38:08;;;;;;;14.70;8.67;;;;;;;5.79;100.00;101596.50;4995542;28;20041;-79
2023/04/17 00:40:35;;;;;;;14.97;9.63;;;;;;;5.83;100.00;101600.94;4978762;28;20050;-80
2023/04/17 00:43:03;;;;;;;13.13;8.70;;;;;;;5.84;100.00;101602.69;4995850;28;20042;-80
2023/04/17 00:45:30;;;;;;;14.13;9.00;;;;;;;5.91;100.00;101600.22;4976741;28;20048;-80
2023/04/17 00:47:58;;;;;;;13.37;9.20;;;;;;;5.96;100.00;101612.50;4988260;28;20042;-79
2023/04/17 00:50:26;;;;;;;12.37;8.73;;;;;;;5.97;100.00;101606.38;4978760;28;20048;-79
2023/04/17 00:52:53;;;;;;;16.40;8.67;;;;;;;6.01;100.00;101597.72;4964226;28;20044;-79
2023/04/17 00:55:20;;;;;;;19.90;12.43;;;;;;;5.79;100.00;101601.75;4976856;28;20042;-79
2023/04/17 00:57:49;;;;;;;16.73;9.87;;;;;;;5.94;100.00;101602.00;4987959;28;20057;-80
2023/04/17 01:00:17;;;;;;;17.07;10.20;;;;;;;5.87;100.00;101606.22;4977134;28;20046;-79
2023/04/17 01:02:45;;;;;;;15.53;10.13;;;;;;;5.80;100.00;101606.13;4993172;28;20038;-78
2023/04/17 01:05:12;;;;;;;13.87;9.07;;;;;;;5.84;100.00;101598.34;4994414;28;20045;-79
2023/04/17 01:07:40;;;;;;;13.53;9.73;;;;;;;5.85;100.00;101604.44;4980958;28;20060;-79
2023/04/17 01:10:07;;;;;;;16.30;10.50;;;;;;;5.80;100.00;101611.34;4993205;28;20046;-80
2023/04/17 01:12:34;;;;;;;18.93;10.77;;;;;;;5.80;100.00;101611.34;4991870;28;20038;-80
2023/04/17 01:15:01;;;;;;;15.77;9.77;;;;;;;5.78;100.00;101608.72;4985452;28;20097;-80
2023/04/17 01:17:28;;;;;;;20.93;12.03;;;;;;;5.93;100.00;101603.72;4991453;28;20054;-81
2023/04/17 01:19:56;;;;;;;17.37;10.03;;;;;;;5.87;100.00;101611.47;4990428;28;20129;-80
2023/04/17 01:22:22;;;;;;;12.83;9.40;;;;;;;5.80;100.00;101611.34;4976035;28;20038;-80
2023/04/17 01:24:49;;;;;;;16.03;10.03;;;;;;;5.74;100.00;101611.28;4976403;28;20562;-80
2023/04/17 01:27:16;;;;;;;16.70;10.20;;;;;;;5.78;100.00;101613.97;4994020;28;20462;-81
2023/04/17 01:29:43;;;;;;;19.83;10.97;;;;;;;5.74;100.00;101606.94;4976325;28;20069;-80
2023/04/17 01:32:10;;;;;;;16.47;10.13;;;;;;;5.73;100.00;101618.28;4977779;28;20076;-80
2023/04/17 01:34:36;;;;;;;18.97;11.93;;;;;;;5.72;100.00;101618.22;4974545;28;20034;-80
2023/04/17 01:37:03;;;;;;;18.53;11.50;;;;;;;5.58;100.00;101612.81;5001863;28;20041;-79
2023/04/17 01:39:30;;;;;;;20.43;12.27;;;;;;;5.71;100.00;101616.47;4974068;28;20099;-80
2023/04/17 01:41:57;;;;;;;17.83;10.33;;;;;;;5.57;100.00;101619.78;4961056;28;20042;-81
2023/04/17 01:44:23;;;;;;;17.77;11.93;;;;;;;5.71;100.00;101611.22;4993229;28;20053;-80
2023/04/17 01:46:50;;;;;;;16.50;10.40;;;;;;;5.59;100.00;101615.44;4993833;28;20069;-79
2023/04/17 01:49:17;;;;;;;16.97;10.73;;;;;;;5.63;100.00;101618.97;4991374;28;20041;-81
2023/04/17 01:51:44;;;;;;;17.97;11.20;;;;;;;5.62;100.00;101617.22;4993707;28;20042;-81
2023/04/17 01:54:10;;;;;;;18.10;11.33;;;;;;;5.62;100.00;101618.09;4991967;28;20081;-81
2023/04/17 01:56:37;;;;;;;16.20;10.20;;;;;;;5.50;100.00;101617.06;4976557;28;20034;-81
2023/04/17 01:59:03;;;;;;;15.43;10.40;;;;;;;5.43;100.00;101623.03;4993702;28;20053;-81
2023/04/17 02:01:30;;;;;;;17.33;10.53;;;;;;;5.44;100.00;101617.81;4992055;28;20041;-81
2023/04/17 02:03:57;;;;;;;18.93;10.73;;;;;;;5.42;100.00;101619.53;4978579;28;20100;-80
2023/04/17 02:06:26;;;;;;;17.23;10.53;;;;;;;5.31;100.00;101618.50;4978648;28;20037;-81
2023/04/17 02:08:53;;;;;;;19.17;10.80;;;;;;;5.27;100.00;101624.53;5009561;28;20125;-81
2023/04/17 02:11:19;;;;;;;20.90;12.10;;;;;;;5.26;100.00;101621.03;4998844;28;20231;-81
2023/04/17 02:13:46;;;;;;;18.87;11.00;;;;;;;5.22;100.00;101623.59;4991592;28;20058;-80
2023/04/17 02:16:13;;;;;;;21.63;12.27;;;;;;;5.22;100.00;101621.84;4993328;28;20506;-80
2023/04/17 02:18:40;;;;;;;20.97;13.33;;;;;;;5.18;100.00;101620.03;4992912;28;20049;-81
2023/04/17 02:21:08;;;;;;;17.60;10.90;;;;;;;5.08;100.00;101629.47;4996654;28;20294;-80
2023/04/17 02:23:35;;;;;;;18.73;10.67;;;;;;;5.03;100.00;101640.72;4994284;28;20097;-80
2023/04/17 02:26:02;;;;;;;21.00;11.63;;;;;;;5.08;100.00;101632.09;5008376;28;20033;-80
2023/04/17 02:28:28;;;;;;;18.60;11.93;;;;;;;5.12;100.00;101633.00;5001820;28;20061;-80
2023/04/17 02:30:55;;;;;;;19.47;11.17;;;;;;;5.00;100.00;101636.31;4998324;28;20034;-80
2023/04/17 02:33:22;;;;;;;19.60;11.37;;;;;;;4.96;100.00;101631.88;4993779;28;20525;-80
2023/04/17 02:35:49;;;;;;;17.93;10.73;;;;;;;4.98;100.00;101632.78;4992950;28;20501;-80
2023/04/17 02:38:16;;;;;;;20.00;12.27;;;;;;;4.83;100.00;101640.34;4994595;28;20065;-80
2023/04/17 02:40:44;;;;;;;18.60;11.80;;;;;;;4.79;100.00;101635.91;4990843;28;20038;-80
2023/04/17 02:43:12;;;;;;;20.40;12.20;;;;;;;4.69;100.00;101639.19;4990717;28;20415;-80
2023/04/17 02:45:39;;;;;;;21.60;12.57;;;;;;;4.84;100.00;101636.88;4989988;28;20042;-80
2023/04/17 02:48:06;;;;;;;20.07;11.07;;;;;;;4.90;100.00;101638.75;4979769;28;20476;-80
2023/04/17 02:50:33;;;;;;;17.67;10.70;;;;;;;4.84;100.00;101638.63;4977956;28;20049;-80
2023/04/17 02:52:59;;;;;;;18.50;11.67;;;;;;;4.82;100.00;101637.72;4978512;28;20041;-80
2023/04/17 02:55:26;;;;;;;17.17;11.17;;;;;;;4.78;100.00;101644.59;4975017;28;20509;-80
2023/04/17 02:57:53;;;;;;;20.73;10.93;;;;;;;4.70;100.00;101636.59;4994008;28;20030;-80
2023/04/17 03:00:20;;;;;;;18.30;11.07;;;;;;;4.70;100.00;101636.59;4973385;28;20042;-80
2023/04/17 03:02:46;;;;;;;20.80;12.43;;;;;;;4.62;100.00;101643.44;4997902;28;20042;-79
2023/04/17 03:05:14;;;;;;;18.63;11.60;;;;;;;4.59;100.00;101640.75;4975917;28;20046;-80
2023/04/17 03:07:41;;;;;;;17.93;10.23;;;;;;;4.62;100.00;101632.97;4992644;28;20042;-80
2023/04/17 03:10:08;;;;;;;19.87;11.73;;;;;;;4.60;100.00;101642.53;4988837;28;20046;-79
2023/04/17 03:12:35;;;;;;;20.97;12.10;;;;;;;4.52;100.00;101642.38;4960848;28;20080;-80
2023/04/17 03:15:01;;;;;;;23.37;14.60;;;;;;;4.54;100.00;101634.56;4994179;28;20486;-80
2023/04/17 03:17:28;;;;;;;19.33;11.30;;;;;;;4.48;100.00;101640.56;4992052;28;20045;-81
2023/04/17 03:19:55;;;;;;;20.63;11.27;;;;;;;4.50;100.00;101640.59;5005745;28;20053;-80
2023/04/17 03:22:21;;;;;;;21.47;12.53;;;;;;;4.47;100.00;101641.41;4990984;28;20042;-80
2023/04/17 03:24:48;;;;;;;18.20;11.47;;;;;;;4.41;100.00;101643.91;4992466;28;20511;-80
2023/04/17 03:27:15;;;;;;;21.53;13.60;;;;;;;4.37;100.00;101649.03;4988928;28;20057;-79
2023/04/17 03:29:41;;;;;;;22.07;13.87;;;;;;;4.46;100.00;101649.25;4991711;28;20099;-80
2023/04/17 03:32:08;;;;;;;21.63;12.10;;;;;;;4.42;100.00;101652.63;4992461;28;20345;-81
2023/04/17 03:34:35;;;;;;;23.13;13.20;;;;;;;4.35;100.00;101643.75;4975634;28;20073;-80
2023/04/17 03:37:01;;;;;;;22.33;13.20;;;;;;;4.45;100.00;101656.19;4988557;28;20100;-79
2023/04/17 03:39:28;;;;;;;24.50;13.97;;;;;;;4.42;100.00;101666.59;4991364;28;20046;-80
2023/04/17 03:41:55;;;;;;;21.57;12.90;;;;;;;4.45;100.00;101656.19;4974897;28;20046;-81
2023/04/17 03:44:21;;;;;;;22.77;13.83;;;;;;;4.40;100.00;101657.84;4977085;28;20384;-80
2023/04/17 03:46:49;;;;;;;24.20;13.57;;;;;;;4.47;100.00;101664.97;5007649;28;20308;-81
2023/04/17 03:49:16;;;;;;;24.87;13.43;;;;;;;4.51;100.00;101663.28;4996423;28;20049;-80
2023/04/17 03:51:42;;;;;;;24.87;15.27;;;;;;;4.43;100.00;101662.25;4995645;28;20041;-80
2023/04/17 03:54:09;;;;;;;27.27;15.17;;;;;;;4.37;100.00;101672.56;4978696;28;20042;-80
2023/04/17 03:56:36;;;;;;;31.70;16.47;;;;;;;4.44;100.00;101675.34;5009857;28;20550;-81
2023/04/17 03:59:05;;;;;;;24.90;15.27;;;;;;;4.44;100.00;101675.34;4995044;28;20050;-81
2023/04/17 04:01:33;;;;;;;24.13;14.40;;;;;;;4.42;100.00;101678.78;4978266;28;20293;-81
2023/04/17 04:04:00;;;;;;;25.67;14.27;;;;;;;4.34;100.00;101673.41;4996736;28;20060;-80
2023/04/17 04:06:28;;;;;;;25.87;13.20;;;;;;;4.38;100.00;101672.63;5010786;28;20030;-80
2023/04/17 04:08:55;;;;;;;25.93;14.90;;;;;;;4.39;100.00;101683.97;5006304;28;20470;-80
2023/04/17 04:11:22;;;;;;;27.93;16.33;;;;;;;4.44;100.00;101684.94;4977542;28;20522;-81
2023/04/17 04:13:49;;;;;;;24.80;13.57;;;;;;;4.40;100.00;101689.22;4979041;28;20519;-80
2023/04/17 04:16:15;;;;;;;24.00;14.23;;;;;;;4.38;100.00;101690.06;4995443;28;20048;-81
2023/04/17 04:18:42;;;;;;;25.37;15.37;;;;;;;4.39;100.00;101692.69;4992060;28;20053;-81
2023/04/17 04:21:10;;;;;;;25.20;14.73;;;;;;;4.44;100.00;101695.41;5011343;28;20566;-81
2023/04/17 04:23:39;;;;;;;24.13;15.17;;;;;;;4.43;100.00;101689.28;4990347;28;20042;-82
2023/04/17 04:26:06;;;;;;;25.90;14.80;;;;;;;4.44;100.00;101693.66;4993430;28;20042;-82
2023/04/17 04:28:33;;;;;;;31.97;16.83;;;;;;;4.55;100.00;101687.78;5000167;28;20049;-82
2023/04/17 04:31:01;;;;;;;26.07;15.67;;;;;;;4.62;100.00;101705.38;4986008;28;20042;-82
2023/04/17 04:33:28;;;;;;;32.07;17.43;;;;;;;4.76;100.00;101704.78;4989906;28;20041;-82
2023/04/17 04:36:00;;;;;;;26.80;16.17;;;;;;;4.65;100.00;101701.09;4992225;28;20044;-82
2023/04/17 04:38:31;;;;;;;28.87;17.67;;;;;;;4.67;100.00;101703.72;4991773;28;20062;-82
2023/04/17 04:41:00;;;;;;;38.63;21.07;;;;;;;4.80;100.00;101711.00;4977046;28;20046;-82
2023/04/17 04:43:27;;;;;;;33.43;19.07;;;;;;;4.78;100.00;101704.81;4975585;28;20495;-82
2023/04/17 04:45:54;;;;;;;37.97;19.60;;;;;;;4.82;100.00;101708.41;4961232;28;20065;-82
2023/04/17 04:48:21;;;;;;;41.33;20.83;;;;;;;4.77;100.00;101713.53;4974695;28;20046;-82
2023/04/17 04:50:48;;;;;;;37.47;19.57;;;;;;;4.88;100.00;101709.41;4993227;28;20038;-82
2023/04/17 04:53:15;;;;;;;33.27;18.90;;;;;;;4.89;100.00;101710.28;5008804;28;20046;-81
2023/04/17 04:55:42;;;;;;;35.57;18.70;;;;;;;4.97;100.00;101709.59;4991618;28;20050;-82
2023/04/17 04:58:08;;;;;;;41.63;21.77;;;;;;;4.98;100.00;101715.69;4972888;28;20066;-82
2023/04/17 05:00:35;;;;;;;36.63;21.93;;;;;;;5.02;100.00;101715.78;4960373;28;20053;-82
2023/04/17 05:03:02;;;;;;;32.57;19.33;;;;;;;5.15;100.00;101721.25;4989608;28;20116;-82
2023/04/17 05:05:29;;;;;;;37.13;19.77;;;;;;;5.12;100.00;101719.44;4990730;28;20042;-82
2023/04/17 05:07:56;;;;;;;38.90;20.47;;;;;;;5.19;100.00;101718.72;4960089;28;20511;-82
2023/04/17 05:10:23;;;;;;;36.17;20.13;;;;;;;5.25;100.00;101720.56;4976115;28;20050;-82
2023/04/17 05:12:50;;;;;;;37.20;21.33;;;;;;;5.27;100.00;101724.09;4988859;28;20129;-82
2023/04/17 05:15:16;;;;;;;38.00;20.20;;;;;;;5.31;100.00;101721.56;4992833;28;20104;-82
2023/04/17 05:17:43;;;;;;;41.70;21.07;;;;;;;5.30;100.00;101729.41;4964134;28;20602;-82
2023/04/17 05:20:13;;;;;;;33.77;20.53;;;;;;;5.25;100.00;101725.81;4989768;28;20506;-82
2023/04/17 05:22:40;;;;;;;34.97;20.07;;;;;;;5.32;100.00;101733.81;4974891;28;20046;-83
2023/04/17 05:25:07;;;;;;;38.40;20.60;;;;;;;5.45;100.00;101729.66;4989552;28;20081;-82
2023/04/17 05:27:34;;;;;;;37.60;21.47;;;;;;;5.55;100.00;101736.84;4990688;28;20041;-83
2023/04/17 05:30:01;;;;;;;36.83;20.63;;;;;;;5.61;100.00;101738.66;4994381;28;20328;-82
2023/04/17 05:32:30;;;;;;;34.60;19.23;;;;;;;5.67;100.00;101741.41;4976519;28;20137;-82
2023/04/17 05:34:56;;;;;;;33.83;19.50;;;;;;;5.80;100.00;101727.66;4993239;28;20052;-82
2023/04/17 05:37:23;;;;;;;37.10;19.77;;;;;;;5.90;100.00;101736.53;4991528;28;20065;-83
2023/04/17 05:39:50;;;;;;;33.07;19.30;;;;;;;5.85;100.00;101740.81;4992507;28;20491;-82
2023/04/17 05:42:17;;;;;;;35.40;19.97;;;;;;;5.89;100.00;101745.28;4993675;28;20495;-83
2023/04/17 05:44:44;;;;;;;35.83;18.97;;;;;;;5.82;100.00;101739.03;4975683;28;20096;-83
2023/04/17 05:47:11;;;;;;;34.43;19.43;;;;;;;5.73;100.00;101738.91;4993505;28;20080;-82
2023/04/17 05:49:38;;;;;;;32.57;18.23;;;;;;;5.87;100.00;101745.22;4987758;28;20069;-81
2023/04/17 05:52:06;;;;;;;34.57;19.27;;;;;;;6.02;100.00;101743.75;4996006;28;20452;-83
2023/04/17 05:54:33;;;;;;;36.67;20.13;;;;;;;6.23;100.00;101743.19;4991516;28;20072;-82
2023/04/17 05:57:01;;;;;;;37.20;18.77;;;;;;;6.26;100.00;101743.22;5003096;28;20045;-83
2023/04/17 05:59:30;;;;;;;32.13;18.77;;;;;;;6.20;100.00;101746.63;4978639;28;20459;-83
2023/04/17 06:01:58;;;;;;;35.40;19.40;;;;;;;6.13;100.00;101747.41;4993749;28;20084;-82
2023/04/17 06:04:25;;;;;;;33.77;18.70;;;;;;;6.12;100.00;101745.63;4976947;28;20049;-82
2023/04/17 06:06:52;;;;;;;39.30;19.07;;;;;;;6.15;100.00;101745.72;4975477;28;20074;-83
2023/04/17 06:09:20;;;;;;;30.33;18.13;;;;;;;6.52;100.00;101744.47;4988058;28;20133;-83
2023/04/17 06:11:48;;;;;;;29.17;17.47;;;;;;;6.56;100.00;101743.66;4989182;28;20046;-82
2023/04/17 06:14:15;;;;;;;31.50;16.50;;;;;;;6.71;100.00;101748.22;5003142;28;20061;-82
2023/04/17 06:16:42;;;;;;;29.33;16.33;;;;;;;6.70;100.00;101751.72;4979220;28;20446;-83
2023/04/17 06:19:09;;;;;;;29.37;17.30;;;;;;;6.90;100.00;101738.84;4995197;28;20045;-83
2023/04/17 06:21:37;;;;;;;27.83;16.50;;;;;;;6.95;100.00;101753.78;4979372;28;20045;-83
2023/04/17 06:24:04;;;;;;;28.20;15.87;;;;;;;7.22;100.00;101744.44;4993642;28;20049;-83
2023/04/17 06:26:31;;;;;;;27.83;15.67;;;;;;;7.84;100.00;101747.66;4991847;28;20073;-83
2023/04/17 06:28:57;;;;;;;23.47;14.13;;;;;;;8.26;100.00;101751.47;4992116;28;20389;-83
2023/04/17 06:31:24;;;;;;;22.80;13.77;;;;;;;8.72;99.66;101747.34;4974115;28;20133;-83
2023/04/17 06:33:51;;;;;;;24.27;15.20;;;;;;;8.78;95.88;101753.53;4987492;28;20054;-82
2023/04/17 06:36:17;;;;;;;22.02;13.63;;;;;;;8.64;97.46;101754.34;4978654;28;20072;-82
2023/04/17 06:38:46;;;;;;;23.05;15.10;;;;;;;8.78;96.94;101750.91;4975830;28;20069;-82
2023/04/17 06:41:13;;;;;;;21.77;14.25;;;;;;;8.87;97.48;101746.56;4979491;28;20046;-82
2023/04/17 06:43:40;;;;;;;23.33;15.13;;;;;;;8.41;96.61;101763.91;4960594;28;20117;-81
2023/04/17 06:46:06;;;;;;;20.83;15.75;;;;;;;8.03;100.00;101766.22;4972592;28;20062;-80
2023/04/17 06:48:33;;;;;;;23.38;13.63;;;;;;;8.39;100.00;101762.97;5009282;28;20109;-82
2023/04/17 06:51:01;;;;;;;23.87;15.13;;;;;;;8.18;99.68;101767.22;4979340;28;20058;-82
2023/04/17 06:53:28;;;;;;;21.13;14.50;;;;;;;8.27;100.00;101766.41;4987248;28;20763;-82
2023/04/17 06:55:55;;;;;;;22.50;14.30;;;;;;;8.34;100.00;101767.31;4978470;28;20118;-82
2023/04/17 06:58:21;;;;;;;23.13;13.83;;;;;;;7.82;100.00;101766.94;4993385;28;20038;-83
2023/04/17 07:00:48;;;;;;;22.77;13.77;;;;;;;7.78;100.00;101775.66;4987187;28;20038;-82
2023/04/17 07:03:15;;;;;;;22.60;14.47;;;;;;;7.48;100.00;101774.53;4988733;28;20113;-82
2023/04/17 07:05:43;;;;;;;25.70;14.67;;;;;;;7.70;100.00;101785.22;4968288;28;20045;-82
2023/04/17 07:08:09;;;;;;;27.33;15.03;;;;;;;7.50;100.00;101778.03;4985664;28;20486;-83
2023/04/17 07:10:36;;;;;;;26.00;15.47;;;;;;;7.59;100.00;101786.00;4994411;28;20073;-82
2023/04/17 07:13:03;;;;;;;25.20;16.17;;;;;;;7.53;100.00;101787.69;5011388;28;20061;-83
2023/04/17 07:15:30;;;;;;;24.37;14.27;;;;;;;7.68;100.00;101793.13;5010275;28;20054;-82
2023/04/17 07:17:57;;;;;;;25.77;15.20;;;;;;;7.41;100.00;101787.59;4960514;28;20491;-82
2023/04/17 07:20:24;;;;;;;22.77;14.47;;;;;;;7.27;100.00;101788.31;4992906;28;20065;-81
2023/04/17 07:22:50;;;;;;;23.07;14.77;;;;;;;7.45;100.00;101792.00;4990374;28;20336;-82
2023/04/17 07:25:18;;;;;;;25.33;15.20;;;;;;;7.41;100.00;101790.22;4995234;28;20651;-81
2023/04/17 07:27:45;;;;;;;24.87;14.27;;;;;;;7.51;100.00;101797.31;4982711;28;20500;-82
2023/04/17 07:30:12;;;;;;;24.00;14.00;;;;;;;7.62;100.00;101790.41;4990887;28;20415;-81
2023/04/17 07:32:39;;;;;;;27.57;14.67;;;;;;;7.85;100.00;101788.88;4982217;28;20142;-81
2023/04/17 07:35:06;;;;;;;25.73;14.93;;;;;;;8.03;100.00;101793.41;4981777;28;20050;-81
2023/04/17 07:37:33;;;;;;;24.40;15.70;;;;;;;7.90;100.00;101794.16;4992919;28;20038;-81
2023/04/17 07:40:00;;;;;;;24.33;15.83;;;;;;;7.96;100.00;101801.25;4988808;28;20041;-81
2023/04/17 07:42:28;;;;;;;19.97;14.07;;;;;;;8.00;99.74;101797.78;5015629;28;20499;-82
2023/04/17 07:44:56;;;;;;;21.93;13.73;;;;;;;8.05;100.00;101796.94;4987908;28;20041;-82
2023/04/17 07:47:23;;;;;;;23.30;14.83;;;;;;;8.06;100.00;101797.81;4993412;28;20064;-81
2023/04/17 07:49:50;;;;;;;23.83;13.73;;;;;;;8.24;100.00;101803.25;4978159;28;20041;-82
2023/04/17 07:52:17;;;;;;;19.90;13.67;;;;;;;8.29;100.00;101809.41;4962976;28;20081;-81
2023/04/17 07:54:44;;;;;;;24.47;13.80;;;;;;;8.37;98.48;101804.22;4963776;28;20049;-82
2023/04/17 07:57:11;;;;;;;21.83;13.63;;;;;;;8.47;95.67;101811.31;4995046;28;20066;-82
2023/04/17 07:59:37;;;;;;;25.20;14.03;;;;;;;8.61;98.68;101811.41;4990732;28;20044;-81
2023/04/17 08:02:04;;;;;;;22.27;13.10;;;;;;;8.47;93.28;101819.22;4995763;28;20053;-80
2023/04/17 08:04:32;;;;;;;27.40;14.57;;;;;;;8.22;96.30;101815.50;4968063;28;20566;-81
2023/04/17 08:06:59;;;;;;;20.57;13.70;;;;;;;8.45;96.69;101821.84;4992930;28;20068;-81
2023/04/17 08:09:25;;;;;;;21.20;13.60;;;;;;;8.33;92.12;101824.38;4991134;28;20224;-81
2023/04/17 08:11:52;;;;;;;19.70;12.27;;;;;;;8.65;90.76;101821.97;4991854;28;20067;-81
2023/04/17 08:14:23;;;;;;;22.10;12.97;;;;;;;8.31;94.86;101827.84;4992009;28;20041;-82
2023/04/17 08:16:50;;;;;;;24.80;13.37;;;;;;;8.58;94.39;101829.84;5004729;28;20092;-82
2023/04/17 08:19:17;;;;;;;24.03;13.40;;;;;;;8.49;89.62;101829.75;4992396;28;20514;-81
2023/04/17 08:21:46;;;;;;;26.37;15.33;;;;;;;8.35;91.65;101827.94;4994675;28;20038;-82
2023/04/17 08:24:13;;;;;;;21.73;13.40;;;;;;;8.60;90.08;101833.38;5023503;28;20041;-82
2023/04/17 08:26:40;;;;;;;20.80;13.30;;;;;;;8.60;90.60;101834.25;4998163;28;20046;-81
2023/04/17 08:29:07;;;;;;;20.67;12.97;;;;;;;8.41;88.00;101835.00;5010669;28;20049;-81
2023/04/17 08:31:38;;;;;;;23.20;14.40;;;;;;;8.70;91.63;101840.44;4983650;28;20517;-82
2023/04/17 08:34:05;;;;;;;23.50;14.70;;;;;;;8.84;83.96;101845.81;4978136;28;20061;-81
2023/04/17 08:36:41;;;;;;;24.73;14.52;;;;;;;8.98;83.39;101847.63;4979207;28;20038;-82
2023/04/17 08:39:09;;;;;;;22.90;13.27;;;;;;;9.22;81.22;101840.69;4989689;28;20069;-82
2023/04/17 08:41:49;;;;;;;23.20;14.27;;;;;;;9.17;81.07;101848.59;4995653;28;20038;-82
2023/04/17 08:44:19;;;;;;;19.85;12.50;;;;;;;9.32;79.98;101851.28;4977397;28;20047;-82
2023/04/17 08:46:46;;;;;;;22.15;13.43;;;;;;;9.30;80.64;101855.69;4977403;28;20060;-81
2023/04/17 08:49:13;;;;;;;19.13;13.27;;;;;;;9.56;82.78;101863.69;5001192;28;20038;-82
2023/04/17 08:51:41;;;;;;;20.50;13.63;;;;;;;9.52;84.06;101855.75;4988282;28;20042;-82
2023/04/17 08:54:09;;;;;;;19.83;12.32;;;;;;;9.53;86.96;101866.31;4978146;28;20046;-83
2023/04/17 08:56:35;;;;;;;23.02;13.48;;;;;;;9.82;78.33;101862.84;4979143;28;20456;-83
2023/04/17 08:59:03;;;;;;;19.90;13.13;;;;;;;9.26;79.41;101866.22;4990015;28;20045;-83
2023/04/17 09:01:30;;;;;;;21.27;13.35;;;;;;;8.87;82.32;101870.41;4993763;28;20046;-82
2023/04/17 09:03:56;;;;;;;22.25;14.10;;;;;;;8.98;86.81;101875.72;5012176;28;20038;-81
2023/04/17 09:06:23;;;;;;;21.88;12.77;;;;;;;9.46;89.28;101877.72;4994008;28;20566;-82
2023/04/17 09:08:59;;;;;;;20.98;12.93;;;;;;;9.64;86.08;101876.88;4988549;28;20085;-82
2023/04/17 09:11:26;;;;;;;23.63;13.80;;;;;;;9.61;82.38;101878.66;4978325;28;20053;-82
2023/04/17 09:13:53;;;;;;;19.52;12.82;;;;;;;9.75;84.85;101879.56;4987172;28;20052;-82
2023/04/17 09:16:20;;;;;;;19.33;12.82;;;;;;;9.40;78.95;101882.09;4994852;28;20434;-81
2023/04/17 09:18:46;;;;;;;22.15;13.50;;;;;;;9.52;84.13;101890.94;4994993;28;20038;-82
2023/04/17 09:21:17;;;;;;;23.02;13.43;;;;;;;9.32;79.65;101884.69;5011234;28;20034;-82
2023/04/17 09:23:50;;;;;;;19.63;13.00;;;;;;;9.63;82.91;101876.91;4990095;28;20065;-82
2023/04/17 09:26:22;;;;;;;21.75;14.45;;;;;;;9.83;79.41;101878.69;4988200;28;20052;-85
2023/04/17 09:28:59;;;;;;;18.27;13.23;;;;;;;9.73;78.72;101876.91;4995163;28;20376;-82
2023/04/17 09:31:29;;;;;;;24.75;13.48;;;;;;;9.69;81.77;101884.84;5002469;28;20052;-83
2023/04/17 09:34:01;;;;;;;20.95;13.82;;;;;;;9.44;76.38;101887.41;4994489;28;20034;-83
2023/04/17 09:36:30;;;;;;;18.05;12.52;;;;;;;9.93;78.09;101868.19;4995941;28;20046;-82
2023/04/17 09:39:03;;;;;;;21.85;13.75;;;;;;;10.15;77.08;101878.75;4978125;28;20038;-83
2023/04/17 09:41:30;;;;;;;21.98;13.68;;;;;;;10.08;77.89;101890.16;4992524;28;20070;-84
2023/04/17 09:44:00;;;;;;;19.23;12.30;;;;;;;9.80;72.29;101886.63;4991718;28;20041;-82
2023/04/17 09:46:36;;;;;;;20.20;13.18;;;;;;;9.93;76.48;101895.47;4980796;28;20483;-82
2023/04/17 09:49:17;;;;;;;19.35;12.52;;;;;;;9.52;76.17;101890.94;4991555;28;20034;-85
2023/04/17 09:51:45;;;;;;;20.98;12.55;;;;;;;9.58;75.63;101893.59;4977715;28;20068;-83
2023/04/17 09:54:13;;;;;;;17.50;12.38;;;;;;;9.72;79.01;101898.91;4988959;28;20407;-83
2023/04/17 09:56:41;;;;;;;16.92;12.50;;;;;;;9.85;79.13;101887.53;4978295;28;20072;-81
2023/04/17 09:59:08;;;;;;;26.30;12.80;;;;;;;9.67;80.22;101892.75;4975371;28;20045;-83
2023/04/17 10:01:36;;;;;;;20.50;12.93;;;;;;;9.50;78.92;101891.78;5010209;28;20046;-83
2023/04/17 10:04:04;;;;;;;19.73;12.60;;;;;;;9.82;79.50;101892.75;4988347;28;20046;-82
2023/04/17 10:06:31;;;;;;;21.58;13.82;;;;;;;9.97;76.25;101888.41;4963882;28;20070;-83
2023/04/17 10:08:58;;;;;;;20.55;12.95;;;;;;;10.18;79.18;101891.09;4969978;28;20104;-83
2023/04/17 10:11:28;;;;;;;19.17;12.25;;;;;;;10.27;78.57;101904.34;4973093;28;20042;-83
2023/04/17 10:14:09;;;;;;;21.17;13.95;;;;;;;9.87;75.99;101903.34;5003636;28;20037;-83
2023/04/17 10:16:37;;;;;;;21.10;13.32;;;;;;;10.09;77.60;101902.53;4985627;28;20045;-83
2023/04/17 10:19:28;;;;;;;18.63;12.07;;;;;;;9.70;76.67;101902.44;4973199;28;20407;-83
2023/04/17 10:22:16;;;;;;;25.75;17.85;;;;;;;9.76;78.75;101902.44;4965138;28;20058;-82
2023/04/17 10:24:44;;;;;;;21.42;14.13;;;;;;;9.70;81.61;101900.66;5007228;28;20293;-83
2023/04/17 10:27:23;;;;;;;19.55;13.95;;;;;;;9.54;80.84;101897.09;5005867;28;20049;-84
2023/04/17 10:29:58;;;;;;;30.73;20.63;;;;;;;9.73;81.15;101899.78;4986165;28;20514;-83
2023/04/17 10:32:27;;;;;;;19.60;12.85;;;;;;;9.37;80.50;101898.78;4974722;28;20046;-82
2023/04/17 10:34:59;;;;;;;20.67;12.90;;;;;;;9.28;83.45;101901.38;4989852;28;20053;-81
2023/04/17 10:37:51;;;;;;;20.45;13.15;;;;;;;9.45;84.49;101893.53;4973560;28;20374;-81
2023/04/17 10:40:22;;;;;;;18.88;13.52;;;;;;;9.96;83.25;101890.16;4991265;28;20080;-81
2023/04/17 10:43:21;;;;;;;19.20;12.57;;;;;;;9.85;78.51;101894.56;4994402;28;20044;-82
2023/04/17 10:46:11;;;;;;;20.88;12.80;;;;;;;9.63;81.10;101898.00;4990883;28;20658;-82
2023/04/17 10:48:50;;;;;;;18.85;12.65;;;;;;;9.62;82.40;101893.59;4977508;28;20030;-82
2023/04/17 10:51:27;;;;;;;18.60;11.88;;;;;;;9.74;81.02;101888.34;4976594;28;20137;-80
2023/04/17 10:53:56;;;;;;;18.52;13.40;;;;;;;9.57;80.49;101888.31;4991327;28;20590;-81
2023/04/17 10:56:25;;;;;;;18.00;12.02;;;;;;;9.42;82.87;101889.16;4999667;28;20056;-82
2023/04/17 10:59:17;;;;;;;17.65;12.70;;;;;;;9.44;84.89;101894.44;4981009;28;20250;-81
2023/04/17 11:01:47;;;;;;;16.25;13.98;;;;;;;9.15;81.40;101892.53;5010809;28;20115;-81
2023/04/17 11:04:22;;;;;;;18.85;10.90;;;;;;;9.16;86.55;101890.75;5012338;28;20049;-82
2023/04/17 11:06:54;;;;;;;19.13;11.73;;;;;;;9.05;82.38;101901.25;4979841;28;20865;-82
2023/04/17 11:09:22;;;;;;;18.73;12.33;;;;;;;8.96;87.13;101899.44;4978195;28;20038;-82
2023/04/17 11:11:49;;;;;;;16.42;11.05;;;;;;;9.00;87.80;101898.63;4957666;28;20042;-82
2023/04/17 11:14:18;;;;;;;17.67;11.35;;;;;;;9.31;86.04;101893.47;4999312;28;20510;-82
2023/04/17 11:16:46;;;;;;;16.43;11.07;;;;;;;9.48;85.97;101888.28;5000849;28;20042;-83